Time;durP1;ratioP1;P1;durP2;ratioP2;P2;SDS_P1;SDS_P2;PMS_P1;PMS_P2;Temp;Humidity;BMP_temperature;BMP_pressure;BME280_temperature;BME280_humidity;BME280_pressure;Samples;Min_cycle;Max_cycle;Signal;HPM_P1;HPM_P2
2022/07/22 00:00:45;;;;;;;7.40;6.63;;;;;;;20.47;71.22;99004.66;4125555;28;20787;-52
2022/07/22 00:02:47;;;;;;;7.40;6.80;;;;;;;20.46;71.05;99003.00;4127279;28;20245;-52
2022/07/22 00:04:48;;;;;;;6.85;6.32;;;;;;;20.42;70.74;99001.94;4121700;28;20201;-52
2022/07/22 00:06:50;;;;;;;8.50;7.75;;;;;;;20.39;70.58;98997.00;4122769;28;20297;-52
2022/07/22 00:08:52;;;;;;;7.90;7.13;;;;;;;20.38;70.72;99006.47;4128758;28;20202;-52
2022/07/22 00:10:55;;;;;;;6.63;6.18;;;;;;;20.33;71.05;98992.63;4135946;28;20291;-51
2022/07/22 00:12:56;;;;;;;7.53;6.93;;;;;;;20.38;71.08;98995.34;4125441;28;20202;-52
2022/07/22 00:14:58;;;;;;;8.13;7.43;;;;;;;20.32;71.55;98985.44;4127920;28;20220;-52
2022/07/22 00:17:00;;;;;;;7.15;6.55;;;;;;;20.31;71.67;98989.34;4120682;28;20212;-52
2022/07/22 00:19:01;;;;;;;7.75;7.05;;;;;;;20.30;71.70;98982.13;4137409;28;20237;-52
2022/07/22 00:21:04;;;;;;;8.23;7.53;;;;;;;20.18;71.95;98978.97;4120562;28;20233;-52
2022/07/22 00:23:11;;;;;;;7.35;6.70;;;;;;;20.16;71.77;98992.31;4137875;28;20253;-52
2022/07/22 00:25:13;;;;;;;10.52;6.65;;;;;;;20.13;71.92;98992.94;4120764;28;20237;-52
2022/07/22 00:27:15;;;;;;;7.50;6.93;;;;;;;20.09;71.97;98994.66;4126860;28;20570;-52
2022/07/22 00:29:17;;;;;;;9.50;7.45;;;;;;;20.03;72.26;98988.31;4123012;28;20198;-52
2022/07/22 00:31:18;;;;;;;7.03;6.53;;;;;;;20.01;72.08;98995.28;4138655;28;20287;-52
2022/07/22 00:33:20;;;;;;;7.95;7.28;;;;;;;20.02;71.73;98988.59;4128308;28;20249;-52
2022/07/22 00:35:23;;;;;;;7.35;6.75;;;;;;;20.01;71.75;98998.06;4121857;28;20259;-53
2022/07/22 00:37:24;;;;;;;7.15;6.63;;;;;;;20.00;71.67;98993.66;4116695;28;20197;-52
2022/07/22 00:39:26;;;;;;;7.70;6.90;;;;;;;20.04;71.58;98994.72;4120382;28;20689;-52
2022/07/22 00:41:28;;;;;;;8.07;7.43;;;;;;;20.10;71.72;98988.00;4122517;28;20292;-52
2022/07/22 00:43:51;;;;;;;7.35;6.85;;;;;;;19.99;71.99;98992.00;4121100;28;20742;-51
2022/07/22 00:45:52;;;;;;;7.82;7.32;;;;;;;19.93;72.23;98987.63;4127272;28;20678;-51
2022/07/22 00:47:54;;;;;;;7.05;6.43;;;;;;;19.87;72.50;98994.38;4127809;28;20252;-52
2022/07/22 00:49:56;;;;;;;8.45;7.03;;;;;;;19.84;72.31;98984.69;4121173;28;20234;-52
2022/07/22 00:51:58;;;;;;;16.90;7.85;;;;;;;19.86;72.18;98987.19;4120764;28;20214;-51
2022/07/22 00:54:00;;;;;;;7.05;6.55;;;;;;;19.87;72.00;98989.66;4137077;28;20205;-51
2022/07/22 00:56:03;;;;;;;7.97;7.32;;;;;;;19.87;71.98;98983.28;4120242;28;20927;-53
2022/07/22 00:58:05;;;;;;;7.30;6.80;;;;;;;19.87;72.00;98980.50;4124374;28;20222;-52
2022/07/22 01:00:11;;;;;;;7.32;6.82;;;;;;;19.81;72.52;98981.69;4102194;28;20298;-52
2022/07/22 01:02:13;;;;;;;8.18;7.60;;;;;;;19.72;72.72;98980.69;4119188;28;20270;-52
2022/07/22 01:04:18;;;;;;;9.15;8.45;;;;;;;19.67;73.01;98983.53;4117325;28;20210;-51
2022/07/22 01:06:20;;;;;;;7.65;7.00;;;;;;;19.62;73.07;98978.03;4117778;28;20316;-52
2022/07/22 01:08:22;;;;;;;7.45;6.85;;;;;;;19.59;72.83;98975.88;4127659;28;20280;-52
2022/07/22 01:10:24;;;;;;;7.65;6.95;;;;;;;19.57;73.08;98973.38;4126477;28;20780;-52
2022/07/22 01:12:26;;;;;;;8.73;8.13;;;;;;;19.55;73.38;98974.81;4128488;28;20221;-52
2022/07/22 01:14:28;;;;;;;8.40;7.65;;;;;;;19.53;73.49;98971.50;4105835;28;20313;-52
2022/07/22 01:16:29;;;;;;;8.32;7.63;;;;;;;19.49;73.76;98970.44;4132276;28;20271;-52
2022/07/22 01:18:31;;;;;;;8.25;7.57;;;;;;;19.46;73.77;98971.03;4124454;28;20265;-52
2022/07/22 01:20:35;;;;;;;8.48;7.78;;;;;;;19.46;73.63;98971.03;4126702;28;20292;-52
2022/07/22 01:22:37;;;;;;;8.13;7.53;;;;;;;19.43;73.88;98974.38;4131869;28;20210;-52
2022/07/22 01:24:38;;;;;;;8.68;7.53;;;;;;;19.39;74.09;98976.94;4126124;28;20213;-52
2022/07/22 01:26:40;;;;;;;8.15;7.43;;;;;;;19.41;74.05;98973.88;4144886;28;20230;-51
2022/07/22 01:28:42;;;;;;;8.80;7.93;;;;;;;19.33;74.40;98985.63;4125992;28;20281;-51
2022/07/22 01:30:43;;;;;;;8.27;7.50;;;;;;;19.28;74.50;98980.97;4130610;28;20222;-52
2022/07/22 01:32:45;;;;;;;7.38;6.88;;;;;;;19.22;74.96;98992.41;4140306;28;20229;-51
2022/07/22 01:34:47;;;;;;;8.57;8.05;;;;;;;19.18;74.89;98985.78;4140849;28;20285;-52
2022/07/22 01:36:48;;;;;;;7.15;6.65;;;;;;;19.15;74.87;98983.56;4140357;28;20206;-52
2022/07/22 01:38:50;;;;;;;7.80;7.20;;;;;;;19.19;74.21;98981.88;4131847;28;20210;-52
2022/07/22 01:40:52;;;;;;;11.93;8.38;;;;;;;19.19;73.79;98976.31;4140390;28;20263;-52
2022/07/22 01:42:55;;;;;;;9.02;7.63;;;;;;;19.19;73.83;98982.69;4124457;28;20217;-52
2022/07/22 01:45:00;;;;;;;8.23;7.63;;;;;;;19.18;73.88;98974.66;4139975;28;20277;-52
2022/07/22 01:47:02;;;;;;;6.97;6.47;;;;;;;19.14;74.10;98984.69;4130808;28;20308;-52
2022/07/22 01:49:07;;;;;;;7.80;7.20;;;;;;;19.13;73.83;98983.84;4123353;28;20252;-53
2022/07/22 01:51:08;;;;;;;7.82;7.07;;;;;;;19.11;73.90;98990.84;4129952;28;20226;-53
2022/07/22 01:53:11;;;;;;;8.60;8.00;;;;;;;19.11;73.89;98985.28;4139242;28;20209;-52
2022/07/22 01:55:13;;;;;;;7.82;7.32;;;;;;;19.08;74.15;98983.09;4125602;28;20283;-52
2022/07/22 01:57:15;;;;;;;8.25;7.75;;;;;;;19.06;73.96;98988.13;4125010;28;20186;-52
2022/07/22 01:59:17;;;;;;;8.63;7.95;;;;;;;19.06;74.07;98988.13;4129253;28;20245;-52
2022/07/22 02:01:18;;;;;;;6.63;6.18;;;;;;;19.05;73.87;98986.47;4124266;28;20223;-52
2022/07/22 02:03:20;;;;;;;6.68;6.25;;;;;;;19.05;73.95;98989.25;4115310;28;20238;-52
2022/07/22 02:05:22;;;;;;;7.45;6.82;;;;;;;19.04;73.75;98990.38;4122406;28;20230;-52
2022/07/22 02:07:25;;;;;;;9.32;8.65;;;;;;;19.02;73.73;98989.81;4120805;28;20263;-52
2022/07/22 02:09:27;;;;;;;8.43;7.72;;;;;;;18.99;73.90;98998.72;4120485;28;20214;-51
2022/07/22 02:11:29;;;;;;;7.40;6.80;;;;;;;18.93;73.95;98997.13;4124654;28;20258;-52
2022/07/22 02:13:30;;;;;;;7.78;7.18;;;;;;;18.87;74.27;98988.03;4129545;28;20198;-51
2022/07/22 02:15:33;;;;;;;8.00;7.40;;;;;;;18.83;74.46;98986.09;4124465;28;20233;-52
2022/07/22 02:17:35;;;;;;;8.32;7.72;;;;;;;18.74;74.94;98985.94;4131314;28;20277;-51
2022/07/22 02:19:37;;;;;;;7.93;7.40;;;;;;;18.66;75.73;98988.50;4122877;28;20215;-52
2022/07/22 02:21:38;;;;;;;9.70;8.82;;;;;;;18.46;76.60;98983.13;4124625;28;20202;-51
2022/07/22 02:23:40;;;;;;;9.45;8.80;;;;;;;18.46;76.48;98983.13;4119502;28;20233;-52
2022/07/22 02:25:42;;;;;;;9.88;9.13;;;;;;;18.46;76.38;98977.59;4130134;28;20881;-52
2022/07/22 02:27:44;;;;;;;8.65;7.90;;;;;;;18.45;76.40;98976.75;4123370;28;20669;-52
2022/07/22 02:29:49;;;;;;;9.30;7.63;;;;;;;18.46;76.41;98978.41;4141383;28;20206;-51
2022/07/22 02:31:50;;;;;;;9.60;8.90;;;;;;;18.42;76.26;98974.56;4122811;28;20245;-52
2022/07/22 02:33:52;;;;;;;8.13;7.63;;;;;;;18.41;76.55;98985.94;4130052;28;20238;-52
2022/07/22 02:35:56;;;;;;;8.43;7.82;;;;;;;18.35;76.91;98976.00;4123508;28;20785;-51
2022/07/22 02:37:58;;;;;;;9.10;8.32;;;;;;;18.33;76.96;98972.69;4126962;28;20206;-51
2022/07/22 02:40:04;;;;;;;8.20;7.70;;;;;;;18.30;76.86;98978.78;4129817;28;20229;-52
2022/07/22 02:42:06;;;;;;;9.27;8.68;;;;;;;18.27;76.83;98977.44;4126918;28;20211;-53
2022/07/22 02:44:08;;;;;;;8.38;7.88;;;;;;;18.27;77.04;98973.81;4128667;28;20210;-52
2022/07/22 02:46:09;;;;;;;8.93;8.18;;;;;;;18.25;76.79;98976.06;4130824;28;20252;-52
2022/07/22 02:48:11;;;;;;;9.38;8.77;;;;;;;18.23;77.01;98973.56;4123033;28;20226;-52
2022/07/22 02:50:13;;;;;;;9.40;8.80;;;;;;;18.24;76.70;98969.69;4113488;28;20343;-52
2022/07/22 02:52:15;;;;;;;8.43;7.47;;;;;;;18.25;76.79;98970.50;4139036;28;20214;-52
2022/07/22 02:54:16;;;;;;;8.82;8.02;;;;;;;18.27;76.58;98974.66;4126508;28;20689;-51
2022/07/22 02:56:19;;;;;;;9.13;8.52;;;;;;;18.26;76.57;98966.63;4129498;28;20210;-52
2022/07/22 02:58:21;;;;;;;8.43;7.72;;;;;;;18.21;76.91;98974.97;4113126;28;20305;-52
2022/07/22 03:00:23;;;;;;;8.40;7.82;;;;;;;18.17;76.79;98968.34;4130349;28;20225;-52
2022/07/22 03:02:24;;;;;;;9.23;8.43;;;;;;;18.16;76.70;98969.44;4113935;28;20210;-52
2022/07/22 03:04:26;;;;;;;9.45;8.75;;;;;;;18.18;76.22;98975.56;4109059;28;20206;-52
2022/07/22 03:06:28;;;;;;;9.45;8.70;;;;;;;18.16;76.82;98977.75;4119181;28;20214;-51
2022/07/22 03:08:30;;;;;;;8.85;8.25;;;;;;;18.15;76.49;98971.41;4121486;28;20618;-52
2022/07/22 03:10:31;;;;;;;9.25;8.30;;;;;;;18.15;76.42;98970.56;4121828;28;20246;-51
2022/07/22 03:12:35;;;;;;;9.75;9.13;;;;;;;18.10;76.65;98967.84;4108285;28;20246;-52
2022/07/22 03:14:44;;;;;;;9.38;8.57;;;;;;;18.10;76.66;98973.38;4130460;28;20229;-52
2022/07/22 03:16:47;;;;;;;8.85;8.00;;;;;;;18.07;76.59;98973.97;4143294;28;20288;-52
2022/07/22 03:18:48;;;;;;;7.95;7.43;;;;;;;18.07;76.31;98969.25;4126920;28;20253;-51
2022/07/22 03:20:50;;;;;;;9.57;8.88;;;;;;;18.10;76.27;98974.22;4128418;28;20602;-51
2022/07/22 03:22:52;;;;;;;8.15;7.65;;;;;;;18.13;76.24;98978.34;4124698;28;20214;-51
2022/07/22 03:24:54;;;;;;;6.95;6.35;;;;;;;18.17;75.87;98977.50;4121669;28;20217;-51
2022/07/22 03:26:55;;;;;;;8.07;7.50;;;;;;;18.18;75.62;98975.56;4124055;28;20226;-51
2022/07/22 03:28:59;;;;;;;9.30;8.40;;;;;;;18.17;75.39;98974.72;4140633;28;20205;-52
2022/07/22 03:31:01;;;;;;;7.95;7.35;;;;;;;18.16;75.39;98983.31;4130475;28;20325;-52
2022/07/22 03:33:03;;;;;;;7.60;7.00;;;;;;;18.14;75.08;98982.78;4131141;28;20286;-51
2022/07/22 03:35:05;;;;;;;7.65;7.13;;;;;;;18.11;75.15;98981.41;4127127;28;20203;-51
2022/07/22 03:37:07;;;;;;;7.40;6.90;;;;;;;18.11;75.05;98977.81;4122691;28;20654;-52
2022/07/22 03:39:09;;;;;;;8.00;7.40;;;;;;;18.10;74.93;98978.91;4137846;28;20769;-51
2022/07/22 03:41:10;;;;;;;7.88;7.30;;;;;;;18.08;75.20;98986.69;4136802;28;20221;-51
2022/07/22 03:43:12;;;;;;;8.45;7.78;;;;;;;18.02;75.44;98994.22;4102588;28;20282;-51
2022/07/22 03:45:14;;;;;;;9.02;8.43;;;;;;;17.90;76.25;98987.34;4127872;28;20206;-52
2022/07/22 03:47:20;;;;;;;8.85;8.25;;;;;;;17.80;76.56;98988.22;4123848;28;20233;-52
2022/07/22 03:49:22;;;;;;;8.43;7.82;;;;;;;17.72;77.05;98982.47;4125870;28;20670;-52
2022/07/22 03:51:23;;;;;;;9.95;9.25;;;;;;;17.68;77.37;98981.38;4124842;28;20701;-51
2022/07/22 03:53:25;;;;;;;10.20;9.40;;;;;;;17.65;77.69;98976.44;4120749;28;20198;-51
2022/07/22 03:55:27;;;;;;;8.82;8.13;;;;;;;17.62;77.76;98971.44;4130965;28;20229;-54
2022/07/22 03:57:29;;;;;;;8.70;7.90;;;;;;;17.62;77.66;98971.44;4128409;28;20257;-52
2022/07/22 03:59:31;;;;;;;9.13;8.52;;;;;;;17.62;77.56;98974.22;4127616;28;20272;-52
2022/07/22 04:01:32;;;;;;;7.45;6.95;;;;;;;17.61;77.17;98972.56;4139158;28;20569;-52
2022/07/22 04:03:34;;;;;;;9.13;8.52;;;;;;;17.63;77.18;98979.47;4139300;28;20252;-52
2022/07/22 04:05:36;;;;;;;9.13;8.52;;;;;;;17.67;76.97;98974.19;4123734;28;20206;-52
2022/07/22 04:07:38;;;;;;;8.43;7.82;;;;;;;17.68;76.59;98970.31;4119606;28;20250;-52
2022/07/22 04:09:39;;;;;;;7.75;7.15;;;;;;;17.70;76.52;98979.16;4129072;28;20205;-52
2022/07/22 04:11:41;;;;;;;8.75;8.15;;;;;;;17.72;76.51;98979.72;4122690;28;20202;-52
2022/07/22 04:13:43;;;;;;;8.63;8.02;;;;;;;17.71;76.72;98975.28;4135326;28;20241;-51
2022/07/22 04:15:44;;;;;;;9.55;8.57;;;;;;;17.68;76.78;98975.84;4122778;28;20651;-52
2022/07/22 04:17:49;;;;;;;8.02;7.45;;;;;;;17.66;76.85;98973.34;4127950;28;20245;-52
2022/07/22 04:19:51;;;;;;;8.43;7.35;;;;;;;17.64;77.04;98969.25;4128448;28;20233;-52
2022/07/22 04:21:53;;;;;;;8.45;7.82;;;;;;;17.59;77.23;98972.03;4121571;28;20217;-52
2022/07/22 04:23:55;;;;;;;8.25;7.75;;;;;;;17.56;77.64;98962.34;4129916;28;20218;-52
2022/07/22 04:26:02;;;;;;;10.52;9.48;;;;;;;17.58;77.71;98970.38;4125351;28;20264;-51
2022/07/22 04:28:04;;;;;;;8.80;8.02;;;;;;;17.52;78.02;98968.75;4129854;28;20233;-52
2022/07/22 04:30:07;;;;;;;9.50;8.55;;;;;;;17.41;79.07;98969.88;4139841;28;20249;-52
2022/07/22 04:32:08;;;;;;;13.88;10.90;;;;;;;17.40;79.08;98969.03;4121563;28;20246;-52
2022/07/22 04:34:10;;;;;;;9.07;8.43;;;;;;;17.29;79.68;98966.56;4120922;28;20269;-52
2022/07/22 04:36:12;;;;;;;9.70;8.75;;;;;;;17.37;79.11;98968.78;4106891;28;20206;-51
2022/07/22 04:38:16;;;;;;;9.98;9.07;;;;;;;17.38;78.96;98970.47;4122970;28;20198;-51
2022/07/22 04:40:18;;;;;;;17.33;8.98;;;;;;;17.40;78.81;98973.75;4138098;28;20613;-52
2022/07/22 04:42:20;;;;;;;9.95;8.65;;;;;;;17.47;78.63;98982.59;4123770;28;20275;-51
2022/07/22 04:44:21;;;;;;;8.60;8.00;;;;;;;17.43;78.69;98973.19;4142486;28;20213;-52
2022/07/22 04:46:23;;;;;;;8.85;8.25;;;;;;;17.46;78.56;98981.75;4131738;28;20206;-52
2022/07/22 04:48:25;;;;;;;9.15;8.45;;;;;;;17.52;78.47;98977.84;4143029;28;20233;-52
2022/07/22 04:50:27;;;;;;;9.65;8.85;;;;;;;17.58;78.40;98985.03;4126986;28;20230;-51
2022/07/22 04:52:28;;;;;;;9.20;8.60;;;;;;;17.50;78.64;98982.84;4124863;28;20257;-52
2022/07/22 04:54:31;;;;;;;8.93;8.23;;;;;;;17.54;78.51;98972.88;4133109;28;20209;-52
2022/07/22 04:56:33;;;;;;;9.38;8.65;;;;;;;17.57;78.54;98985.31;4140957;28;20596;-52
2022/07/22 04:58:35;;;;;;;8.90;8.20;;;;;;;17.62;77.80;98976.97;4124539;28;20210;-51
2022/07/22 05:00:37;;;;;;;12.35;8.73;;;;;;;17.66;78.05;98978.09;4126869;28;20234;-51
2022/07/22 05:02:39;;;;;;;9.43;8.20;;;;;;;17.70;78.03;98974.47;4115591;28;20218;-52
2022/07/22 05:04:41;;;;;;;8.85;8.02;;;;;;;17.72;78.23;98975.00;4131366;28;20262;-52
2022/07/22 05:06:43;;;;;;;13.13;8.27;;;;;;;17.71;78.75;98969.75;4126631;28;20827;-52
2022/07/22 05:08:44;;;;;;;9.25;8.55;;;;;;;17.68;78.82;98971.16;4132599;28;20238;-52
2022/07/22 05:10:46;;;;;;;9.88;9.27;;;;;;;17.53;80.15;98967.63;4125211;28;20720;-51
2022/07/22 05:12:48;;;;;;;8.82;8.02;;;;;;;17.64;79.46;98963.72;4144241;28;20205;-52
2022/07/22 05:14:50;;;;;;;9.60;8.77;;;;;;;17.68;79.13;98953.69;4119859;28;20218;-53
2022/07/22 05:16:51;;;;;;;10.73;10.02;;;;;;;17.68;79.68;98962.00;4121357;28;20455;-53
2022/07/22 05:18:53;;;;;;;9.25;8.68;;;;;;;17.71;79.60;98961.44;4119924;28;20209;-52
2022/07/22 05:20:55;;;;;;;9.10;8.40;;;;;;;17.79;79.32;98960.84;4138840;28;20285;-52
2022/07/22 05:22:58;;;;;;;10.00;9.35;;;;;;;17.85;78.97;98959.72;4126813;28;20683;-52
2022/07/22 05:25:00;;;;;;;8.57;7.97;;;;;;;17.91;78.81;98962.16;4121016;28;20798;-53
2022/07/22 05:27:02;;;;;;;9.20;8.30;;;;;;;17.98;78.75;98970.16;4120421;28;20553;-54
2022/07/22 05:29:04;;;;;;;8.40;7.72;;;;;;;18.00;79.12;98967.91;4117637;28;20326;-53
2022/07/22 05:31:06;;;;;;;9.23;8.50;;;;;;;18.12;78.93;98960.09;4123280;28;21000;-52
2022/07/22 05:33:08;;;;;;;9.38;8.65;;;;;;;18.01;79.24;98958.50;4136875;28;20220;-52
2022/07/22 05:35:10;;;;;;;9.68;8.73;;;;;;;18.04;79.03;98966.25;4104990;28;20211;-53
2022/07/22 05:37:11;;;;;;;9.65;8.80;;;;;;;18.19;79.04;98966.94;4105709;28;20649;-54
2022/07/22 05:39:13;;;;;;;9.55;8.75;;;;;;;18.16;79.42;98963.91;4123504;28;20249;-52
2022/07/22 05:41:15;;;;;;;10.23;9.43;;;;;;;18.32;78.92;98965.50;4138786;28;21118;-51
2022/07/22 05:43:17;;;;;;;10.00;8.63;;;;;;;18.16;79.28;98966.69;4117196;28;20670;-54
2022/07/22 05:45:19;;;;;;;9.23;8.52;;;;;;;18.45;79.29;98962.06;4117870;28;20918;-53
2022/07/22 05:47:20;;;;;;;9.93;8.88;;;;;;;18.52;78.41;98968.91;4114889;28;20203;-52
2022/07/22 05:49:24;;;;;;;8.77;8.07;;;;;;;18.76;78.03;98971.75;4134889;28;20257;-52
2022/07/22 05:51:26;;;;;;;8.15;7.63;;;;;;;18.84;77.40;98971.97;4126918;28;20225;-53
2022/07/22 05:53:28;;;;;;;8.93;8.35;;;;;;;18.85;77.10;98964.47;4132573;28;20796;-53
2022/07/22 05:55:29;;;;;;;9.90;9.10;;;;;;;18.85;76.63;98958.94;4115900;28;20217;-51
2022/07/22 05:57:32;;;;;;;9.48;7.97;;;;;;;18.95;76.29;98958.81;4118364;28;20301;-51
2022/07/22 05:59:34;;;;;;;9.00;8.10;;;;;;;19.13;76.36;98963.63;4132871;28;21941;-53
2022/07/22 06:01:36;;;;;;;9.65;8.88;;;;;;;19.15;76.04;98970.53;4131118;28;20206;-51
2022/07/22 06:03:38;;;;;;;10.23;9.43;;;;;;;19.40;75.97;98966.66;4109688;28;20211;-51
2022/07/22 06:05:40;;;;;;;12.30;9.13;;;;;;;19.27;74.84;98967.38;4119634;28;20332;-52
2022/07/22 06:07:41;;;;;;;8.63;7.90;;;;;;;19.16;75.18;98972.19;4121994;28;20215;-51
2022/07/22 06:09:43;;;;;;;9.98;8.93;;;;;;;19.12;75.58;98971.09;4128443;28;20246;-51
2022/07/22 06:11:45;;;;;;;8.57;7.90;;;;;;;19.36;74.81;98965.59;4129652;28;20304;-52
2022/07/22 06:13:46;;;;;;;9.45;8.30;;;;;;;19.39;75.08;98968.59;4106004;28;20215;-52
2022/07/22 06:15:48;;;;;;;7.75;7.15;;;;;;;19.82;74.46;98970.28;4128905;28;20205;-52
2022/07/22 06:17:50;;;;;;;8.65;7.55;;;;;;;19.61;73.50;98973.63;4121688;28;20210;-52
2022/07/22 06:19:51;;;;;;;9.85;8.95;;;;;;;19.50;73.92;98978.47;4122880;28;20289;-52
2022/07/22 06:21:53;;;;;;;22.48;13.13;;;;;;;19.52;74.00;98976.22;4126649;28;20218;-50
2022/07/22 06:23:55;;;;;;;9.10;8.27;;;;;;;19.87;74.41;98972.16;4130110;28;20229;-51
2022/07/22 06:25:56;;;;;;;8.50;7.80;;;;;;;20.10;73.53;98968.53;4105925;28;20206;-51
2022/07/22 06:27:58;;;;;;;8.15;7.35;;;;;;;20.40;72.16;98965.28;4121397;28;20278;-50
2022/07/22 06:30:00;;;;;;;7.03;6.43;;;;;;;20.61;71.56;98966.59;4124793;28;20226;-51
2022/07/22 06:32:02;;;;;;;8.13;7.45;;;;;;;20.75;71.41;98959.09;4128143;28;20408;-50
2022/07/22 06:34:06;;;;;;;7.00;6.47;;;;;;;20.91;70.45;98966.09;4141000;28;20554;-52
2022/07/22 06:36:08;;;;;;;7.63;6.93;;;;;;;21.04;70.28;98962.53;4128465;28;20214;-51
2022/07/22 06:38:10;;;;;;;7.93;7.32;;;;;;;21.14;69.85;98965.09;4122822;28;20745;-51
2022/07/22 06:40:29;;;;;;;9.80;6.75;;;;;;;21.27;69.78;98961.50;4130918;28;20253;-52
2022/07/22 06:42:31;;;;;;;8.02;7.43;;;;;;;20.89;69.00;98957.22;4137949;28;20209;-52
2022/07/22 06:44:33;;;;;;;14.00;6.85;;;;;;;20.92;69.95;98956.63;4138463;28;20244;-52
2022/07/22 06:46:35;;;;;;;8.65;7.20;;;;;;;21.22;69.14;98953.25;4124715;28;20210;-51
2022/07/22 06:48:38;;;;;;;6.32;5.72;;;;;;;21.30;69.13;98958.91;4142116;28;20225;-52
2022/07/22 06:50:40;;;;;;;8.20;7.07;;;;;;;21.39;69.08;98956.25;4132164;28;20233;-52
2022/07/22 06:52:43;;;;;;;7.95;7.10;;;;;;;21.44;67.64;98947.81;4119931;28;20206;-52
2022/07/22 06:54:45;;;;;;;7.88;7.18;;;;;;;21.34;67.56;98939.63;4119637;28;20879;-54
2022/07/22 06:56:46;;;;;;;7.68;7.05;;;;;;;21.30;67.51;98946.97;4120691;28;20210;-51
2022/07/22 06:58:48;;;;;;;8.20;6.63;;;;;;;21.07;68.12;98950.75;4121386;28;20194;-52
2022/07/22 07:00:50;;;;;;;7.68;6.97;;;;;;;20.87;68.96;98943.63;4136832;28;20752;-52
2022/07/22 07:02:52;;;;;;;7.80;7.07;;;;;;;20.87;68.24;98942.75;4127915;28;20213;-52
2022/07/22 07:05:14;;;;;;;7.53;6.82;;;;;;;20.97;67.88;98942.63;4137469;28;20244;-53
2022/07/22 07:07:20;;;;;;;10.15;6.63;;;;;;;20.85;68.74;98939.47;4137342;28;20228;-54
2022/07/22 07:09:25;;;;;;;7.68;7.00;;;;;;;21.26;69.46;98937.56;4119714;28;20229;-54
2022/07/22 07:11:30;;;;;;;7.97;6.85;;;;;;;21.04;68.38;98931.91;4105632;28;20230;-52
2022/07/22 07:13:32;;;;;;;7.38;6.88;;;;;;;21.00;67.96;98933.63;4109497;28;20224;-53
2022/07/22 07:15:34;;;;;;;7.75;6.97;;;;;;;21.18;68.24;98938.31;4124339;28;20214;-52
2022/07/22 07:17:36;;;;;;;8.57;7.78;;;;;;;21.51;67.43;98937.06;4133536;28;20724;-53
2022/07/22 07:19:38;;;;;;;7.07;6.22;;;;;;;21.56;66.73;98940.56;4107943;28;20229;-52
2022/07/22 07:21:39;;;;;;;9.77;6.93;;;;;;;21.66;66.59;98940.41;4120764;28;20206;-52
2022/07/22 07:23:41;;;;;;;9.23;6.53;;;;;;;21.53;66.87;98934.78;4137599;28;20216;-52
2022/07/22 07:25:43;;;;;;;6.47;5.85;;;;;;;21.91;66.54;98936.22;4137905;28;20613;-52
2022/07/22 07:27:45;;;;;;;7.32;5.93;;;;;;;22.22;66.06;98928.78;4139983;28;20213;-54
2022/07/22 07:29:47;;;;;;;9.43;8.52;;;;;;;22.19;64.61;98921.06;4112592;28;20724;-52
2022/07/22 07:31:49;;;;;;;7.78;7.18;;;;;;;22.02;64.96;98926.47;4142486;28;20269;-52
2022/07/22 07:33:50;;;;;;;7.47;6.43;;;;;;;21.99;65.84;98916.78;4124062;28;20669;-52
2022/07/22 07:35:53;;;;;;;7.47;6.97;;;;;;;22.43;65.61;98916.03;4121992;28;20296;-52
2022/07/22 07:37:55;;;;;;;8.75;6.70;;;;;;;22.44;64.30;98912.91;4126797;28;20251;-52
2022/07/22 07:40:04;;;;;;;7.35;6.75;;;;;;;22.59;63.70;98925.66;4185945;28;20603;-51
2022/07/22 07:42:06;;;;;;;7.45;6.85;;;;;;;22.90;63.21;98920.94;4168775;28;20218;-51
2022/07/22 07:44:08;;;;;;;7.20;5.78;;;;;;;23.06;63.26;98913.78;4164073;28;20232;-51
2022/07/22 07:46:11;;;;;;;5.88;5.35;;;;;;;23.08;62.12;98911.47;4168405;28;20299;-52
2022/07/22 07:48:13;;;;;;;7.13;5.68;;;;;;;23.33;62.77;98914.44;4169053;28;20211;-53
2022/07/22 07:50:15;;;;;;;7.03;5.82;;;;;;;23.38;61.99;98910.66;4183913;28;22171;-50
2022/07/22 07:52:17;;;;;;;6.72;5.22;;;;;;;22.83;62.24;98920.56;4176902;28;20200;-51
2022/07/22 07:54:19;;;;;;;5.72;5.00;;;;;;;22.83;61.79;98917.78;4166794;28;20692;-51
2022/07/22 07:56:23;;;;;;;6.22;5.63;;;;;;;22.75;62.22;98910.16;4167666;28;20762;-51
2022/07/22 07:58:25;;;;;;;6.93;6.15;;;;;;;22.96;62.33;98914.06;4167866;28;20322;-51
2022/07/22 08:00:28;;;;;;;5.95;5.28;;;;;;;22.97;63.08;98907.34;4167164;28;20231;-51
2022/07/22 08:02:30;;;;;;;6.75;6.10;;;;;;;23.08;62.53;98903.09;4151671;28;20240;-52
2022/07/22 08:04:33;;;;;;;6.45;5.82;;;;;;;23.28;62.00;98910.94;4168766;28;20211;-52
2022/07/22 08:06:39;;;;;;;5.88;5.28;;;;;;;23.73;61.32;98909.59;4169549;28;20196;-52
2022/07/22 08:08:41;;;;;;;8.98;6.20;;;;;;;23.51;61.30;98909.72;4154464;28;20208;-52
2022/07/22 08:10:43;;;;;;;11.88;6.22;;;;;;;24.05;60.83;98912.78;4168871;28;20223;-52
2022/07/22 08:12:59;;;;;;;5.25;4.75;;;;;;;24.36;59.84;98903.09;4160915;28;20619;-52
2022/07/22 08:15:01;;;;;;;8.80;6.88;;;;;;;23.77;59.32;98909.47;4182913;28;20207;-52
2022/07/22 08:17:03;;;;;;;5.57;4.93;;;;;;;24.10;59.70;98899.50;4184659;28;20207;-51
2022/07/22 08:19:06;;;;;;;5.80;5.28;;;;;;;23.95;59.31;98899.16;4184223;28;20229;-52
2022/07/22 08:21:07;;;;;;;6.13;5.53;;;;;;;24.04;58.43;98898.00;4182311;28;20673;-52
2022/07/22 08:23:10;;;;;;;5.82;5.32;;;;;;;23.97;58.24;98908.03;4183542;28;20269;-51
2022/07/22 08:25:11;;;;;;;7.03;5.82;;;;;;;24.26;58.55;98900.63;4185092;28;20639;-51
2022/07/22 08:27:13;;;;;;;6.10;5.50;;;;;;;24.44;58.01;98896.69;4183206;28;20248;-51
2022/07/22 08:29:15;;;;;;;5.70;5.15;;;;;;;24.75;58.04;98891.72;4181136;28;20212;-51
2022/07/22 08:31:17;;;;;;;6.28;5.68;;;;;;;24.94;56.56;98891.34;4197436;28;20226;-51
2022/07/22 08:33:19;;;;;;;5.70;5.22;;;;;;;24.86;56.52;98887.38;4188837;28;20218;-52
2022/07/22 08:35:23;;;;;;;6.75;6.00;;;;;;;24.80;56.16;98897.13;4203102;28;20219;-51
2022/07/22 08:37:25;;;;;;;6.93;6.05;;;;;;;24.36;57.12;98889.13;4183758;28;20215;-51
2022/07/22 08:39:27;;;;;;;6.38;5.88;;;;;;;24.17;57.37;98883.03;4182616;28;20254;-53
2022/07/22 08:41:34;;;;;;;5.95;5.45;;;;;;;24.68;57.79;98891.41;4181082;28;20227;-52
2022/07/22 08:43:41;;;;;;;6.22;5.60;;;;;;;24.67;57.51;98886.94;4180230;28;20647;-51
2022/07/22 08:45:43;;;;;;;6.20;5.60;;;;;;;25.18;57.17;98878.38;4183223;28;20203;-52
2022/07/22 08:47:46;;;;;;;6.28;5.43;;;;;;;25.49;56.49;98881.72;4182344;28;20245;-51
2022/07/22 08:49:49;;;;;;;5.32;4.93;;;;;;;25.37;55.93;98875.19;4186515;28;20203;-51
2022/07/22 08:51:51;;;;;;;5.55;5.10;;;;;;;25.27;55.84;98884.78;4171032;28;20237;-52
2022/07/22 08:53:54;;;;;;;5.88;4.65;;;;;;;25.35;56.74;98872.75;4169999;28;20269;-54
2022/07/22 08:55:56;;;;;;;6.22;5.68;;;;;;;25.84;55.26;98874.75;4171157;28;20208;-51
2022/07/22 08:57:58;;;;;;;4.80;4.40;;;;;;;26.09;55.48;98876.56;4168284;28;20211;-52
2022/07/22 09:00:00;;;;;;;5.78;5.15;;;;;;;26.29;55.09;98875.75;4170267;28;20303;-52
2022/07/22 09:02:04;;;;;;;5.55;5.05;;;;;;;26.27;53.07;98871.63;4168278;28;20199;-53
2022/07/22 09:04:06;;;;;;;5.68;5.20;;;;;;;25.47;54.91;98867.22;4172862;28;20196;-53
2022/07/22 09:06:08;;;;;;;5.65;5.20;;;;;;;25.82;54.22;98874.28;4172967;28;20211;-52
2022/07/22 09:08:10;;;;;;;6.53;5.55;;;;;;;25.35;55.10;98872.75;4171539;28;20211;-52
2022/07/22 09:10:14;;;;;;;5.43;5.03;;;;;;;25.62;55.38;98877.88;4170202;28;20235;-52
2022/07/22 09:12:16;;;;;;;5.88;5.22;;;;;;;25.71;55.57;98867.41;4172281;28;20246;-51
2022/07/22 09:14:18;;;;;;;7.88;5.47;;;;;;;25.78;54.44;98870.50;4176208;28;20222;-52
2022/07/22 09:16:58;;;;;;;5.72;4.75;;;;;;;25.36;55.40;98868.78;4168372;28;20203;-52
2022/07/22 09:18:59;;;;;;;10.02;5.30;;;;;;;26.12;54.95;98863.84;4156436;28;20760;-53
2022/07/22 09:21:01;;;;;;;6.30;5.47;;;;;;;26.41;53.31;98866.53;4170340;28;20296;-53
2022/07/22 09:23:11;;;;;;;6.85;6.25;;;;;;;25.78;53.30;98864.88;4168937;28;20199;-54
2022/07/22 09:25:31;;;;;;;5.78;5.28;;;;;;;26.49;54.23;98869.28;4175422;28;20211;-53
2022/07/22 09:27:33;;;;;;;7.30;6.38;;;;;;;26.28;54.21;98874.09;4169742;28;20210;-53
2022/07/22 09:29:35;;;;;;;6.78;6.18;;;;;;;26.51;53.68;98866.94;4169325;28;20689;-52
2022/07/22 09:31:40;;;;;;;6.85;6.03;;;;;;;26.99;52.42;98861.47;4171057;28;20249;-52
2022/07/22 09:33:44;;;;;;;6.28;5.70;;;;;;;26.95;52.36;98860.53;4160849;28;20793;-51
2022/07/22 09:35:50;;;;;;;5.13;4.70;;;;;;;27.11;51.78;98864.31;4182803;28;20688;-53